Tiempo atmosférico en la estación meteorológica de Josa i Tuixén, Lleida (1190 m.)



Fecha
DESCASC
Temp. máxima en grados centígrados (hora)
DESCASC
Temp. mínima en grados centígrados (hora)
DESCASC
Temp. media en grados centígrados
DESCASC
Racha de viento máxima en m/sg (hora)
DESCASC
Velocidad máxima media en intervalos de 10 minutos(hora)
DESCASC
Precipitaciones diarias en mm
DESCASC
Precipitaciones de 00:00 a 06:00 en mm
DESCASC
Precipitaciones de 06:00 a 12:00 en mm
DESCASC
Precipitaciones de 12:00 a 18:00 en mm
DESCASC
Precipitaciones de 18:00 a 24:00 en mm
DESCASC

Gráficas

Temp. máximas Temp. mínimas Temp. medias Precipitaciones Rachas de viento máximas Velocidades máximas media en intervalos de 10 minutos

Datos horarios

Fecha y hora oficial Temperatura (ºC) Velocidad del viento (km/h) Dirección del viento Racha (km/h) Dirección de racha Precipitación (mm) Presión (hPa) Tendencia (hPa) Humedad (%)
2020-03-31 23:00:00 3.9 9 Sudeste 14 Sudeste 0.4 -- -- 91
2020-03-31 22:00:00 3.8 6 Sudeste 18 Sur 1.4 -- -- 93
2020-03-31 21:00:00 4.2 4 Sur 13 Sudeste 1.8 -- -- 90
2020-03-31 20:00:00 4.9 6 Sudeste 17 Sudoeste 1 -- -- 87
2020-03-31 19:00:00 5.8 7 Sur 28 Sur 0.2 -- -- 79
2020-03-31 18:00:00 5.9 6 Sur 20 Sudeste 0.4 -- -- 80
2020-03-31 17:00:00 6.5 4 Sudeste 23 Este 0 -- -- 76
2020-03-31 16:00:00 7.4 6 Sudeste 27 Oeste 0 -- -- 74
2020-03-31 15:00:00 8.2 4 Sur 22 Sudeste 0 -- -- 70
2020-03-31 14:00:00 7.2 9 Este 25 Sudeste 0 -- -- 75
2020-03-31 13:00:00 7.3 3 Sur 15 Sudoeste 0 -- -- 76
2020-03-31 12:00:00 7.2 5 Este 19 Oeste 0 -- -- 75
2020-03-31 11:00:00 7.7 12 Oeste 22 Sudoeste 0 -- -- 74
2020-03-31 10:00:00 5.4 3 Sur 12 Sudoeste 0 -- -- 89
2020-03-31 09:00:00 4 4 Este 8 Este 0.2 -- -- 97
2020-03-31 08:00:00 3.1 3 Este 6 Oeste 0.2 -- -- 100
2020-03-31 07:00:00 3.3 2 Sur 17 Este 0 -- -- 98
2020-03-31 06:00:00 -- 3 Sur 6 Sur 0.2 -- -- --
2020-03-31 05:00:00 3.2 3 Sudoeste 6 Sur 0 -- -- 100
2020-03-31 04:00:00 2.9 4 Sudoeste 9 Oeste 0 -- -- 100
2020-03-31 03:00:00 2.5 2 Sur 6 Oeste 0 -- -- 100
2020-03-31 02:00:00 2.6 2 Sudeste 5 Sur 0.4 -- -- 100
2020-03-31 01:00:00 2.5 3 Sur 6 Oeste 0.4 -- -- 99
2020-03-31 00:00:00 2.1 0 Calma 4 Oeste 0 -- -- 98
2020-03-30 23:00:00 2.2 2 Noroeste 9 Noroeste 0 -- -- 98
2020-03-30 22:00:00 2.1 0 Calma 5 Oeste 0 -- -- 96
2020-03-30 21:00:00 2.2 0 Calma 5 Oeste 0 -- -- 94
2020-03-30 20:00:00 2.7 0 Calma 8 Sur 0.2 -- -- 92
2020-03-30 19:00:00 3 4 Sudoeste 9 Oeste 0.2 -- -- 90
2020-03-30 18:00:00 3.2 3 Sur 6 Oeste 0 -- -- 89
2020-03-30 17:00:00 3.2 3 Oeste 10 Noroeste 0.2 -- -- 90
2020-03-30 16:00:00 3.3 4 Nordeste 14 Nordeste 0.4 -- -- 90
2020-03-30 15:00:00 4 3 Nordeste 16 Oeste 0.2 -- -- 88
2020-03-30 14:00:00 3.7 4 Nordeste 14 Nordeste 0 -- -- 86
2020-03-30 13:00:00 4.1 3 Nordeste 25 Oeste 0 -- -- 82
2020-03-30 12:00:00 4 15 Oeste 24 Oeste 0 -- -- 84
2020-03-30 11:00:00 4.3 11 Oeste 28 Sudoeste 0 -- -- 83
2020-03-30 10:00:00 3.8 9 Sur 23 Sudoeste 0 -- -- 84
2020-03-30 09:00:00 4.3 6 Sur 20 Sur 0 -- -- 83
2020-03-30 08:00:00 4.2 10 Sudoeste 23 Sur 0 -- -- 86
2020-03-30 07:00:00 4.5 7 Sudoeste 23 Sudoeste 0 -- -- 90
2020-03-30 06:00:00 4.8 9 Sudoeste 25 Sur 0 -- -- 87
2020-03-30 05:00:00 5.4 9 Sudoeste 17 Sudoeste 0 -- -- 81
2020-03-30 04:00:00 4.7 0 Calma 15 Sur 0 -- -- 90
2020-03-30 03:00:00 4.9 8 Sudoeste 17 Sur 0 -- -- 87
2020-03-30 02:00:00 4.7 0 Calma 8 Sudeste 0 -- -- 96
2020-03-30 01:00:00 5 3 Sudeste 8 Sudoeste 0.2 -- -- 95
2020-03-30 00:00:00 5.5 0 Calma 5 Sudeste 0.4 -- -- 93
2020-03-29 23:00:00 5.8 0 Calma 6 Sudeste 0 -- -- 89
2020-03-29 22:00:00 6.9 4 Sudeste 10 Sudoeste 0 -- -- 80
2020-03-29 21:00:00 7.7 4 Sudoeste 14 Sudoeste 0 -- -- 74
2020-03-29 20:00:00 8.2 6 Sudoeste 17 Noroeste 0 -- -- 67
2020-03-29 19:00:00 9.3 9 Sudoeste 19 Oeste 0 -- -- 64
2020-03-29 18:00:00 9.5 12 Sudoeste 25 Sudoeste 0 -- -- 65
2020-03-29 17:00:00 10.6 14 Oeste 25 Oeste 0 -- -- 64
2020-03-29 16:00:00 11 13 Sudoeste 24 Oeste 0 -- -- 60
2020-03-29 15:00:00 11.9 14 Oeste 22 Oeste 0 -- -- 55
2020-03-29 14:00:00 13.4 4 Oeste 17 Noroeste 0 -- -- 40
2020-03-29 13:00:00 12.8 4 Norte 13 Norte 0 -- -- 42
2020-03-29 12:00:00 11.2 4 Norte 12 Nordeste 0 -- -- 48
2020-03-29 11:00:00 8.2 2 Sudoeste 4 Oeste 0 -- -- 64
2020-03-29 10:00:00 2.5 0 Calma 5 Sudeste 0 -- -- 96
2020-03-29 09:00:00 0.2 0 Calma 4 Sudoeste 0 -- -- 95
2020-03-29 08:00:00 -0.1 0 Calma 2 Sur 0 -- -- 95
2020-03-29 07:00:00 -0.1 0 Calma 4 Este 0 -- -- 95
2020-03-29 06:00:00 0.2 0 Calma 4 Oeste 0 -- -- 95
2020-03-29 05:00:00 0.3 0 Calma 3 Sur 0 -- -- 95
2020-03-29 03:00:00 0.8 0 Calma 4 Oeste 0 -- -- 98
2020-03-29 01:00:00 1.3 3 Sur 5 Este 0 -- -- 98
2020-03-29 00:00:00 1.6 0 Calma 5 Oeste 0 -- -- 97
2020-03-28 23:00:00 2 3 Este 6 Oeste 0 -- -- 95
2020-03-28 22:00:00 2.6 0 Calma 5 Nordeste 0 -- -- 95
2020-03-28 21:00:00 3.2 0 Calma 5 Oeste 0 -- -- 93
2020-03-28 20:00:00 4.5 2 Este 5 Sudoeste 0 -- -- 89
2020-03-28 19:00:00 6.8 0 Calma 9 Oeste 0 -- -- 84
2020-03-28 18:00:00 8 5 Oeste 17 Oeste 0 -- -- 83
2020-03-28 17:00:00 10.1 6 Nordeste 19 Nordeste 0 -- -- 62
2020-03-28 16:00:00 8.8 8 Oeste 11 Sudoeste 0 -- -- 70
2020-03-28 15:00:00 9.3 8 Oeste 17 Oeste 0 -- -- 65
2020-03-28 14:00:00 10.5 6 Oeste 16 Oeste 0 -- -- 57
2020-03-28 13:00:00 10 10 Sudoeste 15 Sudoeste 0 -- -- 59
2020-03-28 12:00:00 9.1 3 Oeste 12 Oeste 0 -- -- 58
2020-03-28 11:00:00 8.1 3 Norte 10 Noroeste 0 -- -- 64
2020-03-28 10:00:00 6 2 Nordeste 4 Oeste 0 -- -- 72
2020-03-28 09:00:00 3.7 0 Calma 4 Nordeste 0 -- -- 91
2020-03-28 08:00:00 1.9 3 Oeste 5 Nordeste 0 -- -- 99
2020-03-28 07:00:00 1.3 0 Calma 4 Este 0 -- -- 99
2020-03-28 06:00:00 1 0 Calma 6 Nordeste 0 -- -- 99
2020-03-28 05:00:00 0.9 0 Calma 6 Este 0 -- -- 98
2020-03-28 04:00:00 1.1 0 Calma 5 Nordeste 0 -- -- 98
2020-03-28 03:00:00 1.3 2 Oeste 4 Este 0 -- -- 98
2020-03-28 02:00:00 1.1 0 Calma 5 Sudoeste 0 -- -- 98
2020-03-28 01:00:00 0.9 0 Calma 4 Sudeste 0 -- -- 97
2020-03-28 00:00:00 1.2 0 Calma 8 Este 0 -- -- 97
2020-03-27 23:00:00 1.7 2 Sur 4 Sudeste 0 -- -- 96
2020-03-27 22:00:00 1.8 0 Calma 5 Este 0 -- -- 95
2020-03-27 21:00:00 2.4 0 Calma 7 Sudoeste 0.2 -- -- 93
2020-03-27 20:00:00 3 7 Sudoeste 10 Sudoeste 0 -- -- 87
2020-03-27 19:00:00 3.8 5 Sur 14 Sudoeste 0 -- -- 76
2020-03-27 18:00:00 5.2 8 Sudoeste 19 Oeste 0 -- -- 69
2020-03-27 17:00:00 6.4 13 Oeste 22 Sudoeste 0 -- -- 66
2020-03-27 16:00:00 6.7 11 Sudoeste 21 Sudoeste 0 -- -- 61
2020-03-27 15:00:00 8.8 6 Oeste 17 Oeste 0 -- -- 48
2020-03-27 14:00:00 8.7 10 Oeste 19 Sur 0 -- -- 45
2020-03-27 13:00:00 8.4 5 Norte 13 Noroeste 0 -- -- 43
2020-03-27 12:00:00 5.9 3 Oeste 8 Oeste 0 -- -- 56
2020-03-27 11:00:00 3.4 0 Calma 5 Nordeste 0 -- -- 62
2020-03-27 10:00:00 1.4 0 Calma 5 Oeste 0 -- -- 74
2020-03-27 09:00:00 -1.7 0 Calma 4 Este 0.4 -- -- 86
2020-03-27 08:00:00 -4.3 0 Calma -- -- 0.2 -- -- 96
2020-03-27 07:00:00 -5.4 0 Calma -- -- 0 -- -- 95
2020-03-27 06:00:00 -5.9 0 Calma 2 Sur 0 -- -- 94
2020-03-27 05:00:00 -5.8 0 Calma 3 Oeste 0 -- -- 93
2020-03-27 04:00:00 -5.7 0 Calma 2 Sur 0 -- -- 94
2020-03-27 03:00:00 -5.3 0 Calma 3 Oeste 0 -- -- 94
2020-03-27 02:00:00 -5 0 Calma 4 Sudoeste 0 -- -- 94
2020-03-27 01:00:00 -4.8 2 Este 4 Sudeste 0 -- -- 94
2020-03-27 00:00:00 -4.4 0 Calma 3 Oeste 0 -- -- 94
2020-03-26 23:00:00 -4 2 Sudoeste 5 Este 0 -- -- 93
2020-03-26 22:00:00 -3.5 0 Calma 4 Sudeste 0 -- -- 94
2020-03-26 21:00:00 -2.7 0 Calma 6 Sur 0 -- -- 94
2020-03-26 20:00:00 -1.7 3 Sur 9 Este 0 -- -- 93
2020-03-26 19:00:00 -0.9 3 Oeste 21 Este 1.2 -- -- 93
2020-03-26 18:00:00 1.2 5 Sudoeste 11 Sudoeste 0 -- -- 82
2020-03-26 17:00:00 2 4 Norte 13 Oeste 0 -- -- 73
2020-03-26 16:00:00 2.3 7 Oeste 23 Oeste 0 -- -- 72
2020-03-26 15:00:00 2.5 4 Oeste 10 Noroeste 0 -- -- 70
2020-03-26 14:00:00 1.3 3 Noroeste 8 Sur 0 -- -- 80
2020-03-26 13:00:00 0 5 Sudoeste 25 Norte 1.4 -- -- 86
2020-03-26 12:00:00 0.4 4 Este 14 Nordeste 0.4 -- -- 85
2020-03-26 11:00:00 1.7 8 Nordeste 17 Este 0.2 -- -- 82
2020-03-26 10:00:00 2.5 2 Norte 9 Este 0 -- -- 76
2020-03-26 09:00:00 -1.4 2 Sur 12 Este 0 -- -- 99
2020-03-26 08:00:00 -2.8 0 Calma 8 Nordeste 0 -- -- 97
2020-03-26 07:00:00 -3.3 2 Sudoeste 6 Este 0 -- -- 96
2020-03-26 06:00:00 -3 3 Sudeste 10 Sudoeste 0 -- -- 96
2020-03-26 05:00:00 -3 0 Calma 6 Este 0 -- -- 97
2020-03-26 04:00:00 -2.9 0 Calma 5 Noroeste 0 -- -- 97
2020-03-26 03:00:00 -2.1 0 Calma 5 Sudoeste 0 -- -- 95
2020-03-26 02:00:00 -1.3 0 Calma 3 Este 0 -- -- 97
2020-03-26 01:00:00 -0.9 0 Calma 4 Nordeste 0 -- -- 97
2020-03-26 00:00:00 -0.9 0 Calma 8 Nordeste 0 -- -- 96
2020-03-25 23:00:00 -1.1 2 Sudeste 7 Sudoeste 0 -- -- 95
2020-03-25 22:00:00 -0.4 2 Este 6 Sur 0 -- -- 91
2020-03-25 21:00:00 0.8 0 Calma 5 Sur 0 -- -- 89
2020-03-25 20:00:00 0.8 2 Sudoeste 6 Sudeste 0 -- -- 89
2020-03-25 19:00:00 1 3 Norte 11 Oeste 0 -- -- 88
2020-03-25 18:00:00 1.3 3 Sudoeste 13 Norte 0 -- -- 87
2020-03-25 17:00:00 1.8 7 Nordeste 14 Nordeste 0 -- -- 82
2020-03-25 16:00:00 2.7 9 Oeste 16 Oeste 0 -- -- 71
2020-03-25 15:00:00 3.2 6 Oeste 15 Oeste 0 -- -- 67
2020-03-25 14:00:00 3.8 7 Noroeste 17 Noroeste 0 -- -- 68
2020-03-25 13:00:00 3.2 9 Oeste 18 Oeste 0 -- -- 69
2020-03-25 12:00:00 1 9 Oeste 14 Oeste 0 -- -- 79
2020-03-25 11:00:00 -0.9 3 Norte 14 Este 0.8 -- -- 91
2020-03-25 10:00:00 -1.4 8 Este 15 Este 0.4 -- -- 90
2020-03-25 09:00:00 -0.2 3 Oeste 12 Sudeste 0 -- -- 86
2020-03-25 08:00:00 -0.9 4 Este 15 Sudoeste 0.6 -- -- 88
2020-03-25 07:00:00 -0.7 9 Sudoeste 18 Sudoeste 0.2 -- -- 89
2020-03-25 06:00:00 -0.3 8 Sudoeste 17 Sudoeste 0 -- -- 88
2020-03-25 05:00:00 0.4 6 Sudoeste 12 Sudoeste 0.2 -- -- 90
2020-03-25 04:00:00 0.9 7 Sudoeste 24 Oeste 0 -- -- 90
2020-03-25 03:00:00 1.8 8 Sudoeste 13 Sudoeste 0 -- -- 92
2020-03-25 02:00:00 2.4 5 Nordeste 10 Nordeste 0 -- -- 95
2020-03-25 01:00:00 2.9 3 Oeste 6 Noroeste 0 -- -- 93
2020-03-25 00:00:00 2.9 6 Oeste 12 Sudoeste 0 -- -- 91
2020-03-24 23:00:00 3.5 3 Nordeste 10 Nordeste 0 -- -- 95
2020-03-24 22:00:00 3.7 3 Sudeste 11 Sudoeste 0 -- -- 92
2020-03-24 21:00:00 3.8 6 Sudoeste 11 Sudoeste 0 -- -- 93
2020-03-24 20:00:00 3.7 6 Sudoeste 13 Sudoeste 0 -- -- 92
2020-03-24 19:00:00 4.1 0 Calma 12 Sudoeste 0 -- -- 92
2020-03-24 18:00:00 4.2 5 Sur 20 Sudoeste 1.2 -- -- 89
2020-03-24 17:00:00 5.1 12 Sudoeste 26 Oeste 0 -- -- 82
2020-03-24 16:00:00 5.8 13 Sudoeste 31 Sudoeste 0 -- -- 80
2020-03-24 15:00:00 6.5 18 Sudoeste 36 Oeste 0 -- -- 78
2020-03-24 14:00:00 10.7 25 Oeste 36 Oeste 0 -- -- 66
2020-03-24 13:00:00 11.1 21 Sudoeste 31 Sudoeste 0 -- -- 63
2020-03-24 12:00:00 11.7 6 Oeste 18 Sudoeste 0 -- -- 56
2020-03-24 11:00:00 10.2 4 Oeste 12 Sudoeste 0 -- -- 59
2020-03-24 10:00:00 7.2 2 Nordeste 5 Nordeste 0 -- -- 73
2020-03-24 09:00:00 2.6 0 Calma 4 Sur 0 -- -- 96
2020-03-24 08:00:00 0.6 0 Calma 5 Este 0 -- -- 96
2020-03-24 07:00:00 0.7 2 Sudoeste 8 Este 0 -- -- 95
2020-03-24 06:00:00 1.1 0 Calma 6 Sur 0 -- -- 93
2020-03-24 05:00:00 2 0 Calma 6 Sudoeste 0 -- -- 90
2020-03-24 04:00:00 3.9 5 Sur 7 Sur 0 -- -- 83
2020-03-24 03:00:00 3.9 2 Sudoeste 5 Oeste 0 -- -- 88
2020-03-24 02:00:00 3.8 3 Sudeste 5 Este 0 -- -- 90
2020-03-24 01:00:00 2.6 0 Calma 4 Sudeste 0 -- -- 92
2020-03-24 00:00:00 3 3 Sur 6 Sur 0 -- -- 88
2020-03-23 23:00:00 5.3 3 Sudoeste 15 Este 0 -- -- 82
2020-03-23 22:00:00 6.4 4 Sudeste 14 Sudeste 0 -- -- 79
2020-03-23 21:00:00 6.8 2 Sudeste 13 Sudoeste 0 -- -- 77
2020-03-23 20:00:00 7 5 Sudeste 9 Este 0 -- -- 75
2020-03-23 19:00:00 7.7 6 Este 16 Este 0 -- -- 73
2020-03-23 18:00:00 8 9 Este 20 Este 0 -- -- 72
2020-03-23 17:00:00 8.5 12 Oeste 19 Oeste 0 -- -- 76
2020-03-23 16:00:00 8 10 Sudoeste 23 Oeste 0 -- -- 85
2020-03-23 15:00:00 7.4 12 Oeste 18 Oeste 0.2 -- -- 85
2020-03-23 14:00:00 7.8 9 Sudoeste 21 Oeste 0 -- -- 81
2020-03-23 13:00:00 9.2 9 Este 16 Oeste 0 -- -- 72
2020-03-23 12:00:00 8.4 6 Oeste 17 Sudoeste 0 -- -- 72
2020-03-23 11:00:00 8.5 8 Oeste 18 Oeste 0 -- -- 76
2020-03-23 10:00:00 7.7 9 Oeste 22 Sudeste 0 -- -- 79
2020-03-23 09:00:00 6.9 5 Este 17 Sudeste 0 -- -- 80
2020-03-23 08:00:00 4.3 0 Calma 13 Sudeste 0 -- -- 94
2020-03-23 07:00:00 3.6 3 Este 6 Sudeste 0 -- -- 89
2020-03-23 06:00:00 4.5 0 Calma 14 Este 0 -- -- 86
2020-03-23 05:00:00 5 6 Sur 14 Sur 0 -- -- 80
2020-03-23 04:00:00 2.2 2 Sudoeste 6 Sudoeste 0 -- -- 95
2020-03-23 03:00:00 1.7 2 Sur 5 Este 0 -- -- 94
2020-03-23 02:00:00 2.1 3 Sudeste 7 Sudeste 0 -- -- 93
2020-03-23 01:00:00 2.6 0 Calma 10 Sudeste 0 -- -- 91
2020-03-23 00:00:00 4.9 6 Sudeste 17 Sudeste 0 -- -- 84
2020-03-22 23:00:00 3.9 4 Sur 9 Sur 0 -- -- 91
2020-03-22 22:00:00 5.2 6 Sur 13 Sur 0.2 -- -- 88
2020-03-22 21:00:00 6.2 3 Sudoeste 14 Sudoeste 0 -- -- 86
2020-03-22 20:00:00 7 6 Sudoeste 24 Oeste 0 -- -- 80
2020-03-22 19:00:00 7.7 12 Oeste 29 Sudoeste 0 -- -- 78
2020-03-22 18:00:00 9.4 13 Oeste 24 Oeste 0 -- -- 66
2020-03-22 17:00:00 11.4 15 Oeste 25 Oeste 0 -- -- 53
2020-03-22 16:00:00 10.9 17 Oeste 33 Oeste 0 -- -- 54
2020-03-22 15:00:00 10.1 8 Oeste 28 Oeste 0 -- -- 58
2020-03-22 14:00:00 9 17 Oeste 26 Oeste 0 -- -- 67
2020-03-22 13:00:00 8.1 13 Oeste 30 Oeste 0 -- -- 70
2020-03-22 12:00:00 8.6 10 Oeste 23 Oeste 0 -- -- 70
2020-03-22 11:00:00 9 8 Oeste 14 Oeste 0 -- -- 66
2020-03-22 10:00:00 6.3 0 Calma 5 Norte 0 -- -- 86
2020-03-22 09:00:00 5.6 0 Calma -- -- 0 -- -- 87
2020-03-22 08:00:00 4.6 0 Calma 0 Calma 0 -- -- 91
2020-03-22 07:00:00 4.5 0 Calma 3 Este 0 -- -- 93
2020-03-22 06:00:00 4.8 0 Calma 4 Sudoeste 0 -- -- 91
2020-03-22 05:00:00 5.3 0 Calma 3 Oeste 0 -- -- 90
2020-03-22 04:00:00 5.5 3 Noroeste 6 Sudeste 0 -- -- 89
2020-03-22 03:00:00 5.6 0 Calma 4 Sur 0 -- -- 87
2020-03-22 02:00:00 5.6 0 Calma 7 Sudoeste 0 -- -- 86
2020-03-22 01:00:00 6.1 4 Oeste 10 Oeste 0 -- -- 83
2020-03-22 00:00:00 6.3 4 Sudoeste 8 Sur 0 -- -- 82
2020-03-21 23:00:00 6.5 3 Oeste 10 Sudoeste 0 -- -- 81
2020-03-21 22:00:00 7 7 Sudoeste 13 Sur 0 -- -- 77
2020-03-21 21:00:00 7.3 5 Sudoeste 14 Sudoeste 0 -- -- 74
2020-03-21 20:00:00 7.8 5 Sudoeste 20 Sudoeste 0 -- -- 70
2020-03-21 19:00:00 8.2 13 Sudoeste 20 Sudoeste 0 -- -- 68
2020-03-21 18:00:00 9 10 Sudoeste 23 Oeste 0 -- -- 66
2020-03-21 17:00:00 9.9 16 Oeste 31 Oeste 0 -- -- 60
2020-03-21 16:00:00 11.5 18 Oeste 29 Oeste 0 -- -- 55
2020-03-21 15:00:00 13 18 Oeste 26 Sudoeste 0 -- -- 52
2020-03-21 14:00:00 12.8 18 Oeste 29 Oeste 0 -- -- 52
2020-03-21 13:00:00 12.3 13 Oeste 24 Sudoeste 0 -- -- 54
2020-03-21 12:00:00 10.8 5 Noroeste 14 Noroeste 0 -- -- 51
2020-03-21 11:00:00 8.9 6 Oeste 13 Oeste 0 -- -- 58
2020-03-21 10:00:00 5.3 3 Sur 8 Sudoeste 0 -- -- 76
2020-03-21 09:00:00 0.2 0 Calma 4 Este 0 -- -- 99
2020-03-21 08:00:00 -0.9 0 Calma 4 Este 0 -- -- 96
2020-03-21 07:00:00 -1.1 0 Calma 5 Nordeste 0 -- -- 96
2020-03-21 06:00:00 -1.1 0 Calma 6 Nordeste 0 -- -- 96
2020-03-21 05:00:00 -1.1 0 Calma 3 Sudoeste 0 -- -- 97
2020-03-21 04:00:00 -0.8 0 Calma 5 Este 0 -- -- 96
2020-03-21 03:00:00 0 0 Calma 2 Nordeste 0 -- -- 96
2020-03-21 02:00:00 0.5 0 Calma 4 Sur 0 -- -- 95
2020-03-21 01:00:00 1.3 0 Calma 6 Este 0 -- -- 95
2020-03-21 00:00:00 1.8 0 Calma 5 Sudeste 0 -- -- 94
2020-03-20 23:00:00 2.5 0 Calma 5 Sudeste 0 -- -- 90
2020-03-20 22:00:00 4 0 Calma 7 Sudoeste 0 -- -- 84
2020-03-20 21:00:00 5.6 5 Sudoeste 13 Sudoeste 0 -- -- 78
2020-03-20 20:00:00 6.9 7 Sudoeste 20 Sudoeste 0 -- -- 73
2020-03-20 19:00:00 8.4 10 Sudoeste 21 Oeste 0 -- -- 68
2020-03-20 18:00:00 10.5 15 Oeste 29 Oeste 0 -- -- 60
2020-03-20 17:00:00 11.9 16 Oeste 30 Sudoeste 0 -- -- 53
2020-03-20 16:00:00 12.6 20 Oeste 32 Oeste 0 -- -- 50
2020-03-20 15:00:00 13.3 20 Oeste 30 Oeste 0 -- -- 49
2020-03-20 14:00:00 13.3 20 Oeste 34 Oeste 0 -- -- 52
2020-03-20 13:00:00 13.2 16 Oeste 29 Noroeste 0 -- -- 51
2020-03-20 12:00:00 10.9 4 Nordeste 14 Noroeste 0 -- -- 53
2020-03-20 11:00:00 9.5 6 Noroeste 12 Oeste 0 -- -- 61
2020-03-20 10:00:00 6.4 0 Calma 4 Oeste 0 -- -- 74
2020-03-20 09:00:00 0.7 0 Calma 6 Noroeste 0 -- -- 94
2020-03-20 08:00:00 -0.6 0 Calma 4 Este 0 -- -- 93
2020-03-20 07:00:00 -0.4 0 Calma 6 Este 0 -- -- 93
2020-03-20 06:00:00 0 0 Calma 6 Este 0 -- -- 93
2020-03-20 05:00:00 0.7 3 Sudoeste 6 Este 0 -- -- 92
2020-03-20 04:00:00 1.7 0 Calma 5 Sudeste 0 -- -- 90
2020-03-20 03:00:00 2.8 0 Calma 5 Oeste 0 -- -- 88
2020-03-20 02:00:00 4.3 0 Calma 8 Sur 0 -- -- 85
2020-03-20 01:00:00 4.8 0 Calma 5 Este 0 -- -- 88
2020-03-20 00:00:00 4.9 0 Calma 7 Sur 0 -- -- 87
2020-03-19 23:00:00 6.1 4 Sudoeste 8 Oeste 0 -- -- 81
2020-03-19 22:00:00 8.3 4 Sudoeste 15 Sur 0 -- -- 75
2020-03-19 21:00:00 8.6 6 Sur 13 Sudoeste 0 -- -- 75
2020-03-19 20:00:00 9 7 Sur 21 Sudoeste 0 -- -- 72
2020-03-19 19:00:00 9.9 9 Sudoeste 24 Sudoeste 0 -- -- 68
2020-03-19 18:00:00 10.9 14 Sudoeste 30 Sudoeste 0 -- -- 64
2020-03-19 17:00:00 12.6 18 Oeste 31 Oeste 0 -- -- 55
2020-03-19 16:00:00 14.4 19 Oeste 33 Oeste 0 -- -- 46
2020-03-19 15:00:00 15.2 19 Oeste 34 Sudoeste 0 -- -- 37
2020-03-19 14:00:00 15.5 21 Oeste 36 Oeste 0 -- -- 36
2020-03-19 13:00:00 15.3 21 Oeste 35 Oeste 0 -- -- 34
2020-03-19 12:00:00 14.6 19 Oeste 26 Oeste 0 -- -- 34
2020-03-19 11:00:00 11.8 4 Noroeste 9 Noroeste 0 -- -- 58
2020-03-19 10:00:00 8.1 2 Oeste 5 Oeste 0 -- -- 62
2020-03-19 09:00:00 3.2 0 Calma 3 Este 0 -- -- 81
2020-03-19 08:00:00 1.6 0 Calma 3 Oeste 0 -- -- 81
2020-03-19 07:00:00 1.2 0 Calma 5 Oeste 0 -- -- 80
2020-03-19 06:00:00 1.4 0 Calma 4 Oeste 0 -- -- 84
2020-03-19 05:00:00 2 0 Calma 4 Sudoeste 0 -- -- 86
2020-03-19 04:00:00 2.4 0 Calma 5 Oeste 0 -- -- 86
2020-03-19 03:00:00 2.7 0 Calma 5 Oeste 0 -- -- 89
2020-03-19 02:00:00 3.3 0 Calma 4 Sudoeste 0 -- -- 94
2020-03-19 01:00:00 4 0 Calma 4 Sudeste 0 -- -- 97
2020-03-19 00:00:00 4.8 0 Calma 4 Este 0 -- -- 96
2020-03-18 23:00:00 5.5 0 Calma 3 Oeste 0 -- -- 96
2020-03-18 22:00:00 5.8 0 Calma 3 Sudoeste 0 -- -- 95
2020-03-18 21:00:00 6.4 2 Sur 5 Este 0 -- -- 92
2020-03-18 20:00:00 7.2 2 Sur 4 Sudoeste 0 -- -- 89
2020-03-18 19:00:00 9.3 3 Sur 9 Sudoeste 0 -- -- 81
2020-03-18 18:00:00 11.3 5 Sudoeste 13 Sudoeste 0 -- -- 71
2020-03-18 17:00:00 12 8 Sudoeste 15 Oeste 0 -- -- 68
2020-03-18 16:00:00 12.4 9 Sudoeste 17 Oeste 0 -- -- 68
2020-03-18 15:00:00 14.1 8 Oeste 17 Sudoeste 0 -- -- 64
2020-03-18 14:00:00 14.3 6 Noroeste 14 Noroeste 0 -- -- 61
2020-03-18 13:00:00 13.4 5 Noroeste 13 Noroeste 0 -- -- 65
2020-03-18 12:00:00 11.1 4 Oeste 8 Oeste 0 -- -- 70
2020-03-18 11:00:00 8.9 0 Calma 5 Sudoeste 0 -- -- 80
2020-03-18 10:00:00 6.9 0 Calma 3 Oeste 0 -- -- 94
2020-03-18 09:00:00 5.4 0 Calma 3 Este 0 -- -- 100
2020-03-18 08:00:00 4.2 0 Calma 5 Este 0 -- -- 100
2020-03-18 07:00:00 3.9 0 Calma 4 Este 0 -- -- 100
2020-03-18 06:00:00 3.9 0 Calma 4 Este 0 -- -- 100
2020-03-18 05:00:00 4.1 0 Calma 4 Este 0 -- -- 99
2020-03-18 04:00:00 4.2 2 Nordeste 4 Este 0 -- -- 99
2020-03-18 03:00:00 4.6 0 Calma 3 Este 0 -- -- 99
2020-03-18 02:00:00 4.8 0 Calma 3 Oeste 0 -- -- 97
2020-03-18 01:00:00 5.2 2 Este 4 Oeste 0 -- -- 98
2020-03-18 00:00:00 5.5 0 Calma 4 Este 0 -- -- 97
2020-03-17 23:00:00 5.8 0 Calma 3 Este 0 -- -- 95
2020-03-17 22:00:00 5.9 0 Calma 4 Sudoeste 0 -- -- 95
2020-03-17 21:00:00 6.3 0 Calma 7 Este 0 -- -- 94
2020-03-17 20:00:00 6.8 0 Calma 5 Sudeste 0 -- -- 92
2020-03-17 19:00:00 8.5 4 Este 6 Este 0 -- -- 85
2020-03-17 18:00:00 10.4 0 Calma 7 Oeste 0 -- -- 77
2020-03-17 17:00:00 11.3 2 Noroeste 8 Oeste 0 -- -- 69
2020-03-17 16:00:00 11.3 3 Norte 14 Oeste 0 -- -- 63
2020-03-17 15:00:00 10.7 7 Sudoeste 17 Sudoeste 0 -- -- 68
2020-03-17 14:00:00 11.2 8 Sudoeste 22 Sudoeste 0 -- -- 62
2020-03-17 13:00:00 11.6 5 Sudeste 19 Sudoeste 0 -- -- 67
2020-03-17 12:00:00 10.4 3 Noroeste 8 Noroeste 0 -- -- 78
2020-03-17 11:00:00 9.6 4 Oeste 7 Oeste 0 -- -- 78
2020-03-17 10:00:00 8.7 3 Noroeste 18 Sudeste 0 -- -- 81
2020-03-17 09:00:00 8 5 Este 26 Sur 0 -- -- 80
2020-03-17 08:00:00 7.2 10 Sur 25 Sudeste 0 -- -- 76
2020-03-17 07:00:00 6.1 12 Sudoeste 23 Sudoeste 0.6 -- -- 77
2020-03-17 06:00:00 6 4 Sudeste 23 Sudoeste 0.2 -- -- 87
2020-03-17 05:00:00 6.3 7 Sur 27 Sudeste 0.2 -- -- 81
2020-03-17 04:00:00 6.6 6 Sur 22 Sudeste 0 -- -- 83
2020-03-17 03:00:00 6.7 10 Sudeste 27 Este 0 -- -- 82
2020-03-17 02:00:00 6.6 7 Sudeste 20 Este 0 -- -- 88
2020-03-17 01:00:00 6.3 5 Sudoeste 19 Este 0 -- -- 90
2020-03-17 00:00:00 6.1 5 Noroeste 14 Oeste 0 -- -- 94
2020-03-16 23:00:00 6.1 4 Norte 18 Sudeste 0 -- -- 95
2020-03-16 22:00:00 5.9 6 Sudeste 22 Este 0.2 -- -- 94
2020-03-16 21:00:00 4.3 3 Sudoeste 8 Oeste 0 -- -- 100
2020-03-16 20:00:00 4.2 3 Sudoeste 6 Sudoeste 1.8 -- -- 99
2020-03-16 19:00:00 4.3 0 Calma 21 Sudeste 3.4 -- -- 96
2020-03-16 18:00:00 4.3 9 Sudeste 14 Sudeste 3.2 -- -- 94
2020-03-16 17:00:00 4.5 7 Sudeste 22 Este 3.2 -- -- 95
2020-03-16 16:00:00 5 8 Sudeste 18 Este 2.6 -- -- 94
2020-03-16 15:00:00 4.1 9 Sudeste 22 Este 4.6 -- -- 95
2020-03-16 14:00:00 4.9 6 Sur 21 Sudeste 5.4 -- -- 96
2020-03-16 13:00:00 4.7 10 Este 27 Este 1 -- -- 91
2020-03-16 12:00:00 4.1 9 Sur 23 Sudoeste 3 -- -- 92
2020-03-16 11:00:00 4.4 9 Sudeste 21 Sudeste 1.6 -- -- 90
2020-03-16 10:00:00 5.3 5 Sudoeste 31 Oeste 2.6 -- -- 94
2020-03-16 09:00:00 5.9 4 Sudoeste 15 Oeste 0.8 -- -- 98
2020-03-16 08:00:00 5.5 3 Este 20 Oeste 2.6 -- -- 98
2020-03-16 07:00:00 5.5 5 Este 8 Sudeste 0.8 -- -- 100
2020-03-16 06:00:00 5.5 0 Calma 6 Sudoeste 1.2 -- -- 100
2020-03-16 05:00:00 5.5 0 Calma 5 Sudoeste 2 -- -- 100
2020-03-16 04:00:00 5.5 0 Calma 8 Sudoeste 0.6 -- -- 99
2020-03-16 03:00:00 5.5 3 Este 8 Nordeste 2.8 -- -- 98
2020-03-16 02:00:00 5.9 4 Sudeste 17 Sudoeste 3.2 -- -- 95
2020-03-16 01:00:00 6.1 8 Sudeste 21 Sur 1.4 -- -- 92
2020-03-16 00:00:00 6.2 5 Este 23 Sur 0 -- -- 92
2020-03-15 23:00:00 6.3 12 Oeste 31 Sudoeste 0 -- -- 92
2020-03-15 22:00:00 6.7 17 Oeste 30 Oeste 0 -- -- 91
2020-03-15 21:00:00 7.5 13 Oeste 24 Oeste 0 -- -- 88
2020-03-15 20:00:00 7.9 13 Oeste 24 Sudoeste 0 -- -- 88
2020-03-15 19:00:00 8.9 9 Oeste 30 Oeste 0 -- -- 86
2020-03-15 18:00:00 9.9 13 Oeste 32 Oeste 0 -- -- 80
2020-03-15 17:00:00 11.9 10 Oeste 30 Oeste 0 -- -- 69
2020-03-15 16:00:00 12.9 16 Oeste 30 Oeste 0 -- -- 63
2020-03-15 15:00:00 14 11 Oeste 26 Oeste 0 -- -- 51
2020-03-15 14:00:00 15.9 14 Oeste 21 Noroeste 0 -- -- 47
2020-03-15 13:00:00 15.4 6 Norte 17 Nordeste 0 -- -- 35
2020-03-15 12:00:00 14.3 8 Oeste 18 Noroeste 0 -- -- 41
2020-03-15 11:00:00 12.2 4 Norte 8 Norte 0 -- -- 53
2020-03-15 10:00:00 8.8 2 Oeste 5 Sudoeste 0 -- -- 79
2020-03-15 09:00:00 3.4 0 Calma 3 Sudoeste 0 -- -- 100
2020-03-15 08:00:00 2.9 0 Calma 2 Sudoeste 0 -- -- 99
2020-03-15 07:00:00 2.7 0 Calma 4 Este 0 -- -- 97
2020-03-15 06:00:00 2.9 0 Calma 3 Oeste 0 -- -- 95
2020-03-15 05:00:00 4 0 Calma 5 Sur 0 -- -- 92
2020-03-15 04:00:00 5.4 0 Calma 5 Sur 0 -- -- 90
2020-03-15 03:00:00 5.6 0 Calma 4 Nordeste 0 -- -- 90
2020-03-15 02:00:00 5.8 0 Calma 4 Nordeste 0 -- -- 89
2020-03-15 01:00:00 6.1 0 Calma 4 Nordeste 0 -- -- 89
2020-03-15 00:00:00 6.4 3 Oeste 6 Nordeste 0 -- -- 89
2020-03-14 23:00:00 5.9 0 Calma 3 Noroeste 0 -- -- 92
2020-03-14 22:00:00 5.8 2 Sur 5 Sudeste 0 -- -- 88
2020-03-14 21:00:00 8.2 0 Calma 15 Sudoeste 0 -- -- 83
2020-03-14 20:00:00 9 6 Sudoeste 18 Sudoeste 0 -- -- 80
2020-03-14 19:00:00 9.7 9 Sudoeste 19 Sudoeste 0 -- -- 76
2020-03-14 18:00:00 12.2 9 Sudoeste 18 Sudoeste 0 -- -- 66
2020-03-14 17:00:00 13.3 11 Oeste 26 Oeste 0 -- -- 62
2020-03-14 16:00:00 14.5 16 Oeste 24 Sudoeste 0 -- -- 60
2020-03-14 15:00:00 15.5 15 Oeste 25 Sudoeste 0 -- -- 56
2020-03-14 14:00:00 15.7 15 Sudoeste 27 Oeste 0 -- -- 50
2020-03-14 13:00:00 15.9 6 Norte 19 Noroeste 0 -- -- 46
2020-03-14 12:00:00 15.2 8 Noroeste 15 Oeste 0 -- -- 49
2020-03-14 11:00:00 12.7 5 Norte 9 Nordeste 0 -- -- 62
2020-03-14 10:00:00 11 0 Calma 4 Sur 0 -- -- 74
2020-03-14 09:00:00 7.3 0 Calma 3 Sur 0 -- -- 94
2020-03-14 08:00:00 6.7 0 Calma 3 Norte 0 -- -- 98
2020-03-14 07:00:00 6.4 0 Calma 5 Oeste 0 -- -- 97
2020-03-14 06:00:00 6.7 0 Calma 4 Nordeste 0 -- -- 95
2020-03-14 05:00:00 7.1 2 Nordeste 5 Nordeste 0 -- -- 95
2020-03-14 04:00:00 7.3 0 Calma 4 Oeste 0 -- -- 94
2020-03-14 03:00:00 7.4 0 Calma 4 Sudoeste 0 -- -- 93
2020-03-14 02:00:00 7.9 0 Calma 7 Nordeste 0 -- -- 91
2020-03-14 01:00:00 8.6 3 Sudeste 6 Nordeste 0 -- -- 88
2020-03-14 00:00:00 8.1 2 Sudeste 6 Sur 0 -- -- 90
2020-03-13 23:00:00 9.7 3 Sur 8 Oeste 0 -- -- 83
2020-03-13 22:00:00 10.2 3 Sudoeste 8 Oeste 0 -- -- 81
2020-03-13 21:00:00 10.5 2 Sudoeste 6 Sudoeste 0 -- -- 80
2020-03-13 20:00:00 10.8 0 Calma 6 Sudoeste 0 -- -- 78
2020-03-13 19:00:00 11.2 4 Sudoeste 12 Sudoeste 0 -- -- 76
2020-03-13 18:00:00 12.2 9 Sudoeste 15 Oeste 0 -- -- 73
2020-03-13 17:00:00 13.7 12 Oeste 21 Oeste 0 -- -- 67
2020-03-13 16:00:00 13.6 9 Oeste 14 Sudoeste 0 -- -- 70
2020-03-13 15:00:00 13.4 4 Nordeste 15 Nordeste 0 -- -- 70
2020-03-13 14:00:00 14.7 6 Norte 20 Oeste 0 -- -- 66
2020-03-13 13:00:00 14.6 12 Oeste 27 Sudoeste 0 -- -- 64
2020-03-13 12:00:00 14.2 4 Noroeste 18 Norte 0 -- -- 71
2020-03-13 11:00:00 13.6 6 Noroeste 12 Oeste 0 -- -- 73
2020-03-13 10:00:00 11.2 4 Oeste 10 Oeste 0 -- -- 82
2020-03-13 09:00:00 8.5 0 Calma 6 Nordeste 0 -- -- 95
2020-03-13 08:00:00 7.8 0 Calma 17 Noroeste 0 -- -- 95
2020-03-13 07:00:00 7.4 3 Este 8 Este 0 -- -- 94
2020-03-13 06:00:00 7.9 0 Calma 5 Este 0 -- -- 93
2020-03-13 05:00:00 9 3 Noroeste 20 Este 0.2 -- -- 90
2020-03-13 04:00:00 9.2 4 Nordeste 14 Sudoeste 0 -- -- 90
2020-03-13 03:00:00 10.4 6 Sudeste 13 Sudeste 0 -- -- 82
2020-03-13 02:00:00 11.1 4 Sudoeste 12 Sudeste 0 -- -- 69
2020-03-13 01:00:00 11.5 4 Sur 9 Sur 0 -- -- 67
2020-03-13 00:00:00 10.9 5 Oeste 9 Oeste 0 -- -- 67
2020-03-12 23:00:00 11.2 4 Este 8 Este 0 -- -- 64
2020-03-12 22:00:00 11.8 0 Calma 5 Sudeste 0 -- -- 60
2020-03-12 21:00:00 11.9 2 Este 5 Este 0 -- -- 57
2020-03-12 20:00:00 13.3 0 Calma 7 Sudeste 0 -- -- 54
2020-03-12 19:00:00 15.6 2 Sur 9 Sudoeste 0 -- -- 49
2020-03-12 18:00:00 19.3 4 Oeste 18 Oeste 0 -- -- 40
2020-03-12 17:00:00 20.5 5 Noroeste 17 Oeste 0 -- -- 34
2020-03-12 16:00:00 21.2 5 Noroeste 24 Oeste 0 -- -- 33
2020-03-12 15:00:00 22.4 8 Noroeste 22 Oeste 0 -- -- 30
2020-03-12 14:00:00 22.6 6 Sur 22 Sur 0 -- -- 32
2020-03-12 13:00:00 21.7 5 Nordeste 14 Nordeste 0 -- -- 33
2020-03-12 12:00:00 20 2 Norte 6 Norte 0 -- -- 37
2020-03-12 11:00:00 17 3 Oeste 7 Noroeste 0 -- -- 43
2020-03-12 10:00:00 13.4 2 Oeste 7 Noroeste 0 -- -- 57
2020-03-12 09:00:00 8.2 0 Calma 8 Oeste 0 -- -- 74
2020-03-12 08:00:00 6.9 0 Calma 3 Oeste 0 -- -- 69
2020-03-12 07:00:00 6.7 0 Calma 3 Sudoeste 0 -- -- 67
2020-03-12 06:00:00 6.9 3 Oeste 5 Este 0 -- -- 68
2020-03-12 05:00:00 7.3 0 Calma 4 Este 0 -- -- 67
2020-03-12 04:00:00 7.3 0 Calma 3 Nordeste 0 -- -- 69
2020-03-12 03:00:00 7.8 0 Calma 0 Calma -- -- -- 68
2020-03-12 02:00:00 8.3 0 Calma 0 Calma 0 -- -- 67
2020-03-12 01:00:00 8.6 0 Calma 2 Este 0 -- -- 66
2020-03-12 00:00:00 8.9 0 Calma 0 Calma 0 -- -- 64
2020-03-11 23:00:00 9 0 Calma 0 Calma 0 -- -- 65
2020-03-11 22:00:00 9.5 0 Calma 4 Este 0 -- -- 64
2020-03-11 21:00:00 10.3 0 Calma 4 Este 0 -- -- 62
2020-03-11 20:00:00 11.5 2 Este 5 Sudeste 0 -- -- 57
2020-03-11 19:00:00 14.1 3 Nordeste 5 Nordeste 0 -- -- 54
2020-03-11 18:00:00 18.2 4 Noroeste 13 Oeste 0 -- -- 45
2020-03-11 17:00:00 19.9 10 Oeste 21 Oeste 0 -- -- 41
2020-03-11 16:00:00 21.1 13 Oeste 22 Oeste 0 -- -- 39
2020-03-11 15:00:00 22.2 12 Oeste 22 Sudoeste 0 -- -- 33
2020-03-11 14:00:00 22.4 5 Norte 14 Nordeste 0 -- -- 24
2020-03-11 13:00:00 21.2 6 Norte 15 Oeste 0 -- -- 18
2020-03-11 12:00:00 19.8 5 Norte 13 Noroeste 0 -- -- 24
2020-03-11 11:00:00 17.1 3 Oeste 6 Oeste 0 -- -- 26
2020-03-11 10:00:00 12.7 0 Calma 5 Sur 0 -- -- 40
2020-03-11 09:00:00 6 0 Calma 5 Nordeste 0 -- -- 52
2020-03-11 08:00:00 5.7 0 Calma -- -- 0 -- -- 47
2020-03-11 07:00:00 5.4 0 Calma 4 Oeste 0 -- -- 42
2020-03-11 06:00:00 5.5 0 Calma 5 Oeste 0 -- -- 39
2020-03-11 05:00:00 5.5 2 Sudoeste 6 Oeste 0 -- -- 40
2020-03-11 04:00:00 5.8 2 Sudeste 13 Este 0 -- -- 41
2020-03-11 03:00:00 5.8 2 Sudoeste 7 Este 0 -- -- 45
2020-03-11 02:00:00 6.6 0 Calma 6 Este 0 -- -- 51
2020-03-11 01:00:00 7.6 2 Este 7 Nordeste 0 -- -- 49
2020-03-11 00:00:00 9.4 0 Calma 13 Sudeste 0 -- -- 51
2020-03-10 23:00:00 12.1 5 Sudeste 17 Este 0 -- -- 43
2020-03-10 22:00:00 12.6 6 Sudeste 15 Este 0 -- -- 49
2020-03-10 21:00:00 12.9 4 Este 18 Sudoeste 0 -- -- 50
2020-03-10 20:00:00 14.2 5 Sudoeste 16 Sudoeste 0 -- -- 45
2020-03-10 19:00:00 15 6 Sudeste 21 Noroeste 0 -- -- 45
2020-03-10 18:00:00 16.3 9 Este 24 Este 0 -- -- 43
2020-03-10 17:00:00 17.5 8 Nordeste 20 Nordeste 0 -- -- 41
2020-03-10 16:00:00 18.2 10 Nordeste 21 Oeste 0 -- -- 40
2020-03-10 15:00:00 18.3 6 Norte 21 Norte 0 -- -- 41
2020-03-10 14:00:00 18.9 10 Nordeste 23 Nordeste 0 -- -- 38
2020-03-10 13:00:00 17.8 9 Nordeste 22 Norte 0 -- -- 42
2020-03-10 12:00:00 15.8 6 Oeste 15 Oeste 0 -- -- 49
2020-03-10 11:00:00 11.8 8 Sudoeste 13 Sudoeste 0 -- -- 58
2020-03-10 10:00:00 5.5 2 Oeste 9 Sudoeste 0 -- -- 79
2020-03-10 09:00:00 3.9 2 Sudoeste 14 Este 0 -- -- 78
2020-03-10 08:00:00 2.3 4 Sur 12 Oeste 0 -- -- 81
2020-03-10 07:00:00 3.5 3 Noroeste 19 Oeste 0 -- -- 73
2020-03-10 06:00:00 2.5 5 Oeste 15 Oeste 0 -- -- 76
2020-03-10 05:00:00 2.4 4 Oeste 10 Sudoeste 0 -- -- 73
2020-03-10 04:00:00 2.5 3 Oeste 15 Oeste 0 -- -- 71
2020-03-10 03:00:00 2.6 6 Sudoeste 15 Sudoeste 0 -- -- 69
2020-03-10 02:00:00 0.4 4 Oeste 12 Este 0 -- -- 76
2020-03-10 01:00:00 0.6 4 Sudoeste 9 Este 0 -- -- 73
2020-03-10 00:00:00 1.6 2 Sudoeste 14 Nordeste 0 -- -- 67
2020-03-09 23:00:00 3.7 4 Este 18 Este 0 -- -- 59
2020-03-09 22:00:00 4.3 5 Sur 14 Nordeste 0 -- -- 56
2020-03-09 21:00:00 5.4 6 Sudeste 23 Nordeste 0 -- -- 50
2020-03-09 20:00:00 5.8 12 Nordeste 35 Nordeste 0 -- -- 50
2020-03-09 19:00:00 6.3 11 Nordeste 28 Nordeste 0 -- -- 47
2020-03-09 18:00:00 7.8 15 Nordeste 33 Nordeste 0 -- -- 40
2020-03-09 17:00:00 9 13 Nordeste 42 Nordeste 0 -- -- 38
2020-03-09 16:00:00 9.6 23 Nordeste 50 Nordeste 0 -- -- 37
2020-03-09 15:00:00 9.6 18 Nordeste 45 Nordeste 0 -- -- 37
2020-03-09 14:00:00 9.5 19 Nordeste 39 Nordeste 0 -- -- 36
2020-03-09 13:00:00 9 12 Norte 47 Nordeste 0 -- -- 37
2020-03-09 12:00:00 8.8 15 Nordeste 49 Este 0 -- -- 38
2020-03-09 11:00:00 8.3 15 Nordeste 48 Nordeste 0 -- -- 36
2020-03-09 10:00:00 7.3 16 Nordeste 38 Nordeste 0 -- -- 42
2020-03-09 09:00:00 4.7 9 Nordeste 21 Nordeste 0 -- -- 49
2020-03-09 08:00:00 3.9 5 Nordeste 21 Nordeste 0 -- -- 50
2020-03-09 07:00:00 5.2 9 Nordeste 29 Oeste 0 -- -- 48
2020-03-09 06:00:00 2.6 9 Nordeste 24 Nordeste 0 -- -- 69
2020-03-09 05:00:00 0.4 2 Sudoeste 11 Nordeste 0 -- -- 92
2020-03-09 04:00:00 0.7 0 Calma 6 Nordeste 0 -- -- 92
2020-03-09 03:00:00 0.9 0 Calma 9 Oeste 0 -- -- 89
2020-03-09 02:00:00 1.2 5 Noroeste 10 Oeste 0 -- -- 89
2020-03-09 01:00:00 1.9 0 Calma 4 Oeste 0 -- -- 87
2020-03-09 00:00:00 2.3 0 Calma 6 Este 0 -- -- 86
2020-03-08 23:00:00 3 0 Calma 4 Sur 0 -- -- 84
2020-03-08 22:00:00 3.7 0 Calma 5 Este 0 -- -- 83
2020-03-08 21:00:00 4.8 2 Sur 6 Sudeste 0 -- -- 79
2020-03-08 20:00:00 7.1 6 Este 9 Este 0 -- -- 71
2020-03-08 19:00:00 9.5 0 Calma 8 Sur 0 -- -- 64
2020-03-08 18:00:00 10.9 0 Calma 8 Nordeste 0 -- -- 61
2020-03-08 17:00:00 12.5 4 Noroeste 15 Oeste 0 -- -- 54
2020-03-08 16:00:00 13.8 6 Nordeste 18 Norte 0 -- -- 46
2020-03-08 15:00:00 16.1 7 Norte 30 Noroeste 0 -- -- 22
2020-03-08 14:00:00 16.4 9 Oeste 22 Oeste 0 -- -- 24
2020-03-08 13:00:00 14.2 8 Nordeste 15 Nordeste 0 -- -- 30
2020-03-08 12:00:00 12.2 4 Noroeste 13 Oeste 0 -- -- 36
2020-03-08 11:00:00 9.2 2 Oeste 7 Oeste 0 -- -- 46
2020-03-08 10:00:00 4.9 0 Calma 5 Sudeste 0 -- -- 61
2020-03-08 09:00:00 -0.2 0 Calma 5 Sur 0 -- -- 81
2020-03-08 08:00:00 -1 0 Calma 5 Este 0 -- -- 85
2020-03-08 07:00:00 -0.8 0 Calma 4 Sur 0 -- -- 85
2020-03-08 06:00:00 -0.6 2 Este 5 Este 0 -- -- 85
2020-03-08 05:00:00 0.3 0 Calma 5 Sudoeste 0 -- -- 80
2020-03-08 04:00:00 1 0 Calma 5 Oeste 0 -- -- 82
2020-03-08 03:00:00 1.1 3 Sudoeste 6 Sur 0 -- -- 81
2020-03-08 02:00:00 1 2 Sur 5 Nordeste 0 -- -- 79
2020-03-08 01:00:00 0.9 0 Calma 6 Este 0 -- -- 78
2020-03-08 00:00:00 1.1 4 Nordeste 7 Este 0 -- -- 76
2020-03-07 23:00:00 1.4 2 Sudeste 9 Este 0 -- -- 73
2020-03-07 22:00:00 2.6 4 Este 10 Este 0 -- -- 69
2020-03-07 21:00:00 5 3 Sudeste 22 Este 0 -- -- 59
2020-03-07 20:00:00 5.9 10 Este 18 Este 0 -- -- 54
2020-03-07 19:00:00 7.6 9 Nordeste 48 Oeste 0 -- -- 46
2020-03-07 18:00:00 9.3 11 Noroeste 46 Nordeste 0 -- -- 41
2020-03-07 17:00:00 9.7 15 Nordeste 30 Norte 0 -- -- 34
2020-03-07 16:00:00 9.6 12 Nordeste 35 Nordeste 0 -- -- 28
2020-03-07 15:00:00 9 11 Nordeste 44 Norte 0 -- -- 28
2020-03-07 14:00:00 8.9 13 Nordeste 46 Norte 0 -- -- 25
2020-03-07 13:00:00 8.2 13 Nordeste 70 Nordeste 0 -- -- 28
2020-03-07 12:00:00 6.4 42 Nordeste 87 Este 0 -- -- 30
2020-03-07 11:00:00 4.2 40 Este 77 Nordeste 0 -- -- 45
2020-03-07 10:00:00 3.6 25 Nordeste 57 Nordeste 0 -- -- 51
2020-03-07 09:00:00 1.9 14 Nordeste 49 Este 0 -- -- 55
2020-03-07 08:00:00 1.3 27 Nordeste 57 Nordeste 0.2 -- -- 58
2020-03-07 07:00:00 0.5 22 Este 44 Este 0 -- -- 62
2020-03-07 06:00:00 -0.4 17 Nordeste 34 Nordeste 0 -- -- 69
2020-03-07 05:00:00 -0.4 16 Nordeste 31 Nordeste 0.2 -- -- 73
2020-03-07 04:00:00 -1.1 14 Nordeste 33 Nordeste 0 -- -- 86
2020-03-07 03:00:00 -1.4 9 Norte 31 Nordeste 0 -- -- 87
2020-03-07 02:00:00 -0.8 11 Nordeste 32 Nordeste 0 -- -- 71
2020-03-07 01:00:00 -1 17 Nordeste 34 Nordeste 0 -- -- 78
2020-03-07 00:00:00 -1.1 17 Nordeste 33 Nordeste 0.6 -- -- 84
2020-03-06 23:00:00 -1.7 14 Nordeste 30 Nordeste 0.4 -- -- 91
2020-03-06 22:00:00 -1.1 13 Nordeste 37 Nordeste 0 -- -- 82
2020-03-06 21:00:00 -0.5 15 Nordeste 39 Nordeste 0 -- -- 77
2020-03-06 20:00:00 -0.3 16 Nordeste 37 Norte 0 -- -- 75
2020-03-06 19:00:00 1.8 16 Nordeste 36 Norte 0 -- -- 58
2020-03-06 18:00:00 3.2 20 Nordeste 42 Norte 0 -- -- 49
2020-03-06 17:00:00 4.8 14 Nordeste 46 Nordeste 0 -- -- 38
2020-03-06 16:00:00 5.2 17 Nordeste 41 Nordeste 0 -- -- 42
2020-03-06 15:00:00 6.3 16 Nordeste 46 Norte 0 -- -- 39
2020-03-06 14:00:00 6.2 19 Nordeste 44 Nordeste 0 -- -- 40
2020-03-06 13:00:00 6.4 13 Nordeste 32 Nordeste 0 -- -- 42
2020-03-06 12:00:00 7 10 Norte 27 Nordeste 0 -- -- 42
2020-03-06 11:00:00 5.6 4 Nordeste 14 Nordeste 0 -- -- 51
2020-03-06 10:00:00 2.9 10 Nordeste 18 Nordeste 0 -- -- 61
2020-03-06 09:00:00 -1.3 2 Sudoeste 13 Este 0 -- -- 75
2020-03-06 08:00:00 -2.6 0 Calma 5 Nordeste 0 -- -- 75
2020-03-06 07:00:00 -2.4 2 Sudoeste 9 Nordeste 0 -- -- 72
2020-03-06 06:00:00 -2.3 2 Sudeste 5 Este 0 -- -- 71
2020-03-06 05:00:00 -1.8 0 Calma 8 Este 0 -- -- 68
2020-03-06 04:00:00 -1.2 0 Calma 9 Este 0 -- -- 61
2020-03-06 03:00:00 -0.2 2 Este 10 Este 0 -- -- 57
2020-03-06 02:00:00 2.9 5 Este 24 Sudeste 0 -- -- 36
2020-03-06 01:00:00 3 7 Este 18 Sudeste 0 -- -- 37
2020-03-06 00:00:00 3.5 5 Sur 18 Este 0 -- -- 44
2020-03-05 23:00:00 4.4 7 Este 29 Nordeste 0 -- -- 44
2020-03-05 22:00:00 5.3 9 Sur 37 Oeste 0 -- -- 45
2020-03-05 21:00:00 5.9 14 Nordeste 42 Norte 0 -- -- 43
2020-03-05 20:00:00 5.7 6 Sudeste 42 Oeste 0 -- -- 62
2020-03-05 19:00:00 5.6 13 Este 30 Este 0 -- -- 66
2020-03-05 18:00:00 5.6 10 Este 44 Nordeste 0.4 -- -- 81
2020-03-05 17:00:00 7.7 9 Este 31 Nordeste 0 -- -- 83
2020-03-05 16:00:00 8.2 12 Sur 36 Sudoeste 2.4 -- -- 86
2020-03-05 15:00:00 8.4 14 Nordeste 35 Nordeste 0 -- -- 84
2020-03-05 14:00:00 9.2 8 Nordeste 37 Nordeste 0 -- -- 80
2020-03-05 13:00:00 9.5 9 Este 23 Nordeste 0 -- -- 76
2020-03-05 12:00:00 10 6 Este 16 Nordeste 0 -- -- 74
2020-03-05 11:00:00 10.9 4 Noroeste 18 Nordeste 0 -- -- 69
2020-03-05 10:00:00 9.3 4 Este 11 Nordeste 0 -- -- 78
2020-03-05 09:00:00 5 2 Norte 10 Sudeste 0 -- -- 98
2020-03-05 08:00:00 4.2 4 Este 5 Nordeste 0 -- -- 98
2020-03-05 07:00:00 4.4 2 Sudoeste 5 Sur 0 -- -- 95
2020-03-05 06:00:00 4.8 0 Calma 5 Sudeste 0 -- -- 94
2020-03-05 05:00:00 4.9 0 Calma 4 Sur 0 -- -- 91
2020-03-05 04:00:00 4.7 3 Este 8 Nordeste 0 -- -- 90
2020-03-05 03:00:00 5.6 0 Calma 4 Sur 0 -- -- 88
2020-03-05 02:00:00 5 2 Sur 8 Oeste 0 -- -- 89
2020-03-05 01:00:00 4.5 0 Calma 6 Este 0 -- -- 89
2020-03-05 00:00:00 5.3 0 Calma 6 Nordeste 0 -- -- 86
2020-03-04 23:00:00 5.9 3 Sur 5 Oeste 0 -- -- 85
2020-03-04 22:00:00 6 3 Sur 6 Este 0 -- -- 83
2020-03-04 21:00:00 6.9 2 Este 10 Sudeste 0 -- -- 80
2020-03-04 20:00:00 8.6 2 Sur 10 Este 0 -- -- 72
2020-03-04 19:00:00 11 7 Este 19 Nordeste 0 -- -- 62
2020-03-04 18:00:00 13.3 10 Nordeste 21 Nordeste 0 -- -- 55
2020-03-04 17:00:00 14 9 Nordeste 22 Nordeste 0 -- -- 53
2020-03-04 16:00:00 14.2 7 Norte 31 Oeste 0 -- -- 51
2020-03-04 15:00:00 14 7 Nordeste 24 Oeste 0 -- -- 50
2020-03-04 14:00:00 14.8 8 Nordeste 28 Noroeste 0 -- -- 47
2020-03-04 13:00:00 14.9 8 Noroeste 23 Noroeste 0 -- -- 46
2020-03-04 12:00:00 13.2 6 Nordeste 12 Norte 0 -- -- 45
2020-03-04 11:00:00 11.7 2 Noroeste 8 Este 0 -- -- 46
2020-03-04 10:00:00 5.1 3 Norte 9 Nordeste 0 -- -- 53
2020-03-04 09:00:00 1.2 3 Este 8 Sudoeste 0 -- -- 65
2020-03-04 08:00:00 0.1 0 Calma 7 Sur 0 -- -- 63
2020-03-04 07:00:00 -1 2 Noroeste 11 Sur 0 -- -- 68
2020-03-04 06:00:00 -0.5 2 Este 9 Sudeste 0 -- -- 66
2020-03-04 05:00:00 0.4 2 Sudoeste 6 Sudeste 0 -- -- 62
2020-03-04 04:00:00 2 3 Este 18 Este 0 -- -- 55
2020-03-04 03:00:00 3.8 10 Este 21 Este 0 -- -- 46
2020-03-04 02:00:00 4.6 9 Este 26 Norte 0 -- -- 45
2020-03-04 01:00:00 4.8 11 Nordeste 28 Nordeste 0 -- -- 47
2020-03-04 00:00:00 4 17 Este 35 Nordeste 0 -- -- 60
2020-03-03 23:00:00 3.8 12 Nordeste 32 Norte 0 -- -- 68
2020-03-03 22:00:00 4.7 14 Nordeste 42 Nordeste 0 -- -- 63
2020-03-03 21:00:00 5.4 21 Este 44 Nordeste 0 -- -- 61
2020-03-03 20:00:00 6 15 Nordeste 61 Nordeste 0 -- -- 59
2020-03-03 19:00:00 6.5 23 Este 51 Este 0 -- -- 60
2020-03-03 18:00:00 5.3 19 Nordeste 33 Nordeste 0 -- -- 73
2020-03-03 17:00:00 5.5 13 Nordeste 30 Nordeste 0 -- -- 73
2020-03-03 16:00:00 4.3 15 Este 29 Nordeste 0 -- -- 75
2020-03-03 15:00:00 5 6 Noroeste 23 Oeste 0 -- -- 69
2020-03-03 14:00:00 4.1 5 Sudoeste 18 Nordeste 0 -- -- 71
2020-03-03 13:00:00 4.3 10 Este 22 Nordeste 0 -- -- 67
2020-03-03 12:00:00 2.4 3 Nordeste 21 Este 0 -- -- 75
2020-03-03 11:00:00 3 8 Nordeste 28 Nordeste 0 -- -- 61
2020-03-03 10:00:00 2 5 Nordeste 12 Nordeste 0 -- -- 60
2020-03-03 09:00:00 0.8 3 Norte 22 Nordeste 0 -- -- 64
2020-03-03 08:00:00 -0.5 4 Nordeste 21 Este 0 -- -- 70
2020-03-03 07:00:00 -0.1 12 Este 22 Este 0 -- -- 64
2020-03-03 06:00:00 0.6 11 Este 29 Este 0 -- -- 60
2020-03-03 05:00:00 0.5 10 Este 24 Sudeste 0 -- -- 59
2020-03-03 04:00:00 -0.4 9 Este 23 Este 0 -- -- 65
2020-03-03 03:00:00 -0.3 10 Este 18 Nordeste 0 -- -- 66
2020-03-03 02:00:00 -0.2 8 Este 21 Este 0 -- -- 65
2020-03-03 01:00:00 0.2 10 Nordeste 22 Nordeste 0 -- -- 63
2020-03-03 00:00:00 0.7 10 Nordeste 30 Nordeste 0 -- -- 60
2020-03-02 23:00:00 0.9 11 Nordeste 31 Nordeste 0 -- -- 59
2020-03-02 22:00:00 1.4 13 Nordeste 33 Nordeste 0 -- -- 56
2020-03-02 21:00:00 1.8 10 Nordeste 42 Nordeste 0 -- -- 54
2020-03-02 20:00:00 2.2 14 Nordeste 38 Nordeste 0 -- -- 53
2020-03-02 19:00:00 2.8 11 Nordeste 39 Este 0 -- -- 49
2020-03-02 18:00:00 3.8 8 Norte 48 Nordeste 0 -- -- 49
2020-03-02 17:00:00 5.7 17 Nordeste 52 Nordeste 0 -- -- 37
2020-03-02 16:00:00 6.3 24 Nordeste 52 Nordeste 0 -- -- 35
2020-03-02 15:00:00 6.7 16 Norte 54 Nordeste 0 -- -- 39
2020-03-02 14:00:00 6.9 12 Este 49 Nordeste 0 -- -- 69
2020-03-02 13:00:00 5.4 23 Nordeste 60 Nordeste 0 -- -- 74
2020-03-02 12:00:00 5.5 8 Nordeste 24 Sudeste 0 -- -- 88
2020-03-02 11:00:00 4 6 Oeste 36 Nordeste 1.2 -- -- 94
2020-03-02 10:00:00 7.3 14 Nordeste 40 Nordeste 0 -- -- 87
2020-03-02 09:00:00 5.7 10 Sudeste 78 Nordeste 4.6 -- -- 96
2020-03-02 08:00:00 6.9 6 Este 44 Sur 1.6 -- -- 97
2020-03-02 07:00:00 7.1 10 Oeste 45 Oeste 1.4 -- -- 95
2020-03-02 06:00:00 6 19 Oeste 37 Oeste 3.2 -- -- 97
2020-03-02 05:00:00 5.2 3 Sudoeste 19 Oeste 3 -- -- 97
2020-03-02 04:00:00 5.1 8 Sudeste 17 Este 4 -- -- 97
2020-03-02 03:00:00 4.9 5 Sudeste 10 Este 2.4 -- -- 99
2020-03-02 02:00:00 5 0 Calma 12 Nordeste 0.8 -- -- 98
2020-03-02 01:00:00 5 5 Sudoeste 15 Sudeste 0 -- -- 96
2020-03-02 00:00:00 5.3 8 Este 22 Sudeste 1 -- -- 92